»·PEaware :: N101JP KCRQ-KVNY

N101JP :: KCRQ-KVNY

FLIGHT INFORMATION

Flight Status: Arrived
Operator: Privately registered:
United States
More flights under this callsign
Pilot: James T. (870)
Aircraft: PILATUS PC-12 EAGLE
(PC12)
More flights by this aircraft type
Origin: KCRQ McClellan-Palomar
United States
Destination: KVNY Van Nuys
United States
More flights between these airports :: More routes between these airports
Route: MZB293 SLI148 SLI V23 LAX LAX320 CANOG
File this flight plan on PilotEdge
Remarks:
Altitude:
(Current/Filed)
80ft
Speed:
(Current/Filed)
200kts
Departed: 22-Mar-15 02:58 PM
Arrived: 22-Mar-15 03:43 PM
Distance/Time
Traveled:
88nm/0:44
Distance/Time
To Go:
Arrived

Flight Plot

Page will automatically refresh every two minutes.


Map Options




Map Legend


Flown Route
Filed Route
Departure Airport
Arrival Airport
Navaid (VOR, NDB)
Fix

Horizontal Profiles

Position Reports

Time Latitude Longitude Heading Altitude Ground
Speed
22-Mar-15 14:40 33.127271 -117.278076 357 337ft 0kts
22-Mar-15 14:41 33.127271 -117.278076 357 337ft 0kts
22-Mar-15 14:42 33.127271 -117.278076 357 337ft 0kts
22-Mar-15 14:43 33.127271 -117.278076 357 337ft 0kts
22-Mar-15 14:44 33.127271 -117.278076 357 337ft 0kts
22-Mar-15 14:45 33.127271 -117.278076 357 337ft 0kts
22-Mar-15 14:46 33.127905 -117.276991 80 337ft 11kts
22-Mar-15 14:47 33.128458 -117.273171 87 337ft 11kts
22-Mar-15 14:48 33.128581 -117.272373 22 336ft 0kts
22-Mar-15 14:49 33.128581 -117.272373 22 336ft 0kts
22-Mar-15 14:50 33.128581 -117.272373 22 336ft 0kts
22-Mar-15 14:51 33.128125 -117.281062 259 422ft 101kts
22-Mar-15 14:52 33.124542 -117.327395 264 1900ft 154kts
22-Mar-15 14:53 33.120652 -117.378518 264 3676ft 157kts
22-Mar-15 14:54 33.116821 -117.427664 264 5364ft 158kts
22-Mar-15 14:55 33.112574 -117.479875 264 7108ft 158kts
22-Mar-15 14:56 33.107976 -117.535474 264 8001ft 197kts
22-Mar-15 14:57 33.102047 -117.606997 264 7985ft 227kts
22-Mar-15 14:58 33.095549 -117.683211 264 7980ft 232kts
22-Mar-15 14:59 33.121906 -117.751501 301 7977ft 234kts
22-Mar-15 15:00 33.160841 -117.813945 322 7951ft 238kts
22-Mar-15 15:01 33.224003 -117.839036 339 7995ft 242kts
22-Mar-15 15:02 33.288610 -117.863881 339 8003ft 246kts
22-Mar-15 15:03 33.353988 -117.889007 339 8000ft 248kts
22-Mar-15 15:04 33.419607 -117.914242 339 8003ft 248kts
22-Mar-15 15:05 33.485340 -117.939595 339 8000ft 248kts
22-Mar-15 15:06 33.551002 -117.964948 339 8001ft 249kts
22-Mar-15 15:07 33.614869 -117.989643 339 7997ft 251kts
22-Mar-15 15:08 33.681198 -118.015324 340 7998ft 251kts
22-Mar-15 15:09 33.726334 -118.073056 302 7987ft 246kts
22-Mar-15 15:10 33.764630 -118.139223 302 8000ft 244kts
22-Mar-15 15:11 33.803070 -118.205755 302 7999ft 242kts
22-Mar-15 15:12 33.841026 -118.271570 302 7990ft 231kts
22-Mar-15 15:13 33.873928 -118.328818 302 7997ft 200kts
22-Mar-15 15:14 33.906635 -118.385709 302 6606ft 217kts
22-Mar-15 15:15 33.944586 -118.438024 329 6039ft 200kts
22-Mar-15 15:16 33.992399 -118.465193 331 5998ft 185kts
22-Mar-15 15:17 34.037255 -118.490176 331 6002ft 176kts
22-Mar-15 15:18 34.079937 -118.513959 331 5979ft 171kts
22-Mar-15 15:19 34.121138 -118.536933 332 6007ft 170kts
22-Mar-15 15:20 34.173185 -118.543654 354 4911ft 220kts
22-Mar-15 15:21 34.233605 -118.556509 319 4029ft 217kts
22-Mar-15 15:22 34.274755 -118.596469 353 5032ft 192kts
22-Mar-15 15:23 34.319457 -118.599597 5 5024ft 195kts
22-Mar-15 15:24 34.380569 -118.595011 5 4974ft 184kts
22-Mar-15 15:25 34.421139 -118.592055 5 4987ft 178kts
22-Mar-15 15:26 34.469349 -118.588224 5 5006ft 174kts
22-Mar-15 15:27 34.484772 -118.555393 150 5087ft 147kts
22-Mar-15 15:28 34.451453 -118.535740 154 5004ft 132kts
22-Mar-15 15:29 34.419698 -118.515479 149 5007ft 130kts
22-Mar-15 15:30 34.383029 -118.506401 174 4287ft 134kts
22-Mar-15 15:31 34.349016 -118.503512 173 4197ft 120kts
22-Mar-15 15:32 34.316529 -118.500465 173 3388ft 118kts
22-Mar-15 15:33 34.283827 -118.497369 174 2591ft 118kts
22-Mar-15 15:34 34.251065 -118.494272 174 1763ft 117kts
22-Mar-15 15:35 34.220732 -118.491428 174 993ft 98kts
22-Mar-15 15:36 34.206774 -118.489909 127 807ft 4kts
22-Mar-15 15:37 34.206747 -118.487939 91 807ft 7kts
22-Mar-15 15:38 34.206822 -118.487335 265 807ft 0kts
22-Mar-15 15:39 34.206822 -118.487335 265 807ft 0kts

Navigation Log

Ident Type
Flight plan parsing failed, navigation log unavailable